Time;durP1;ratioP1;P1;durP2;ratioP2;P2;SDS_P1;SDS_P2;PMS_P1;PMS_P2;Temp;Humidity;BMP_temperature;BMP_pressure;BME280_temperature;BME280_humidity;BME280_pressure;Samples;Min_cycle;Max_cycle;Signal;HPM_P1;HPM_P2
2023/03/11 00:00:26;;;;;;;0.00;0.00;;;12.20;54.70;;;;;;6240068;22;20396;-77
2023/03/11 00:02:55;;;;;;;0.50;0.00;;;12.10;54.80;;;;;;6216726;23;20373;-76
2023/03/11 00:05:25;;;;;;;0.30;0.00;;;12.10;54.30;;;;;;6215656;22;20368;-77
2023/03/11 00:07:53;;;;;;;0.05;0.00;;;12.20;54.10;;;;;;6241419;23;20369;-79
2023/03/11 00:10:33;;;;;;;0.03;0.00;;;12.20;54.70;;;;;;6240346;22;20858;-78
2023/03/11 00:13:02;;;;;;;0.40;0.00;;;12.10;55.00;;;;;;6241114;23;20435;-79
2023/03/11 00:15:30;;;;;;;0.05;0.00;;;12.10;54.80;;;;;;6242007;22;20388;-77
2023/03/11 00:17:57;;;;;;;0.50;0.00;;;12.20;53.70;;;;;;6240547;23;20369;-78
2023/03/11 00:20:33;;;;;;;0.00;0.00;;;12.30;54.00;;;;;;6241855;22;20373;-76
2023/03/11 00:23:01;;;;;;;0.88;0.00;;;12.30;53.70;;;;;;6241021;23;20439;-77
2023/03/11 00:25:30;;;;;;;0.08;0.00;;;12.20;54.90;;;;;;6240530;22;20755;-78
2023/03/11 00:27:57;;;;;;;0.40;0.00;;;12.20;53.70;;;;;;6241063;23;20422;-77
2023/03/11 00:30:25;;;;;;;0.10;0.00;;;12.30;53.20;;;;;;6240103;22;20416;-79
2023/03/11 00:32:54;;;;;;;0.30;0.00;;;12.30;54.20;;;;;;6241277;23;20706;-78
2023/03/11 00:35:27;;;;;;;0.03;0.00;;;12.40;53.20;;;;;;6239639;22;20380;-77
2023/03/11 00:38:01;;;;;;;0.10;0.00;;;12.40;52.90;;;;;;6216199;23;20758;-78
2023/03/11 00:40:30;;;;;;;0.20;0.00;;;12.50;52.40;;;;;;6239523;22;20368;-77
2023/03/11 00:42:58;;;;;;;0.10;0.00;;;12.50;53.20;;;;;;6240966;23;20373;-76
2023/03/11 00:45:25;;;;;;;0.40;0.00;;;12.60;51.80;;;;;;6239598;22;20404;-77
2023/03/11 00:47:53;;;;;;;0.52;0.00;;;12.60;52.30;;;;;;6241421;23;20372;-76
2023/03/11 00:50:26;;;;;;;0.13;0.00;;;12.60;53.40;;;;;;6240044;22;20393;-77
2023/03/11 00:52:54;;;;;;;0.30;0.00;;;12.50;54.10;;;;;;6241325;23;20377;-76
2023/03/11 00:55:26;;;;;;;0.90;0.00;;;12.40;54.30;;;;;;6239730;22;20953;-77
2023/03/11 00:57:55;;;;;;;0.17;0.00;;;12.40;54.20;;;;;;6240946;23;20376;-77
2023/03/11 01:00:23;;;;;;;0.10;0.00;;;12.30;54.30;;;;;;6214176;22;20684;-76
2023/03/11 01:02:52;;;;;;;0.60;0.00;;;12.30;54.90;;;;;;6241086;23;20369;-77
2023/03/11 01:05:22;;;;;;;0.20;0.00;;;12.30;55.00;;;;;;6239138;22;20385;-77
2023/03/11 01:07:49;;;;;;;1.20;0.10;;;12.30;55.10;;;;;;6216402;23;20784;-77
2023/03/11 01:10:16;;;;;;;0.50;0.00;;;12.20;55.70;;;;;;6239449;22;20403;-79
2023/03/11 01:12:43;;;;;;;0.00;0.00;;;12.20;55.90;;;;;;6241018;23;20524;-76
2023/03/11 01:15:32;;;;;;;0.30;0.00;;;12.10;56.40;;;;;;6214677;22;20427;-77
2023/03/11 01:17:59;;;;;;;0.10;0.00;;;12.10;56.30;;;;;;6239971;23;20467;-77
2023/03/11 01:20:27;;;;;;;1.00;0.25;;;12.10;56.80;;;;;;6239637;22;20383;-77
2023/03/11 01:22:54;;;;;;;0.10;0.00;;;12.00;56.80;;;;;;6213933;23;20880;-77
2023/03/11 01:25:22;;;;;;;0.73;0.00;;;12.00;57.20;;;;;;6239859;22;20877;-77
2023/03/11 01:27:49;;;;;;;0.60;0.00;;;11.90;57.70;;;;;;6240644;23;20376;-78
2023/03/11 01:30:21;;;;;;;0.00;0.00;;;11.80;58.10;;;;;;6239676;22;20861;-77
2023/03/11 01:32:48;;;;;;;0.10;0.00;;;11.90;58.10;;;;;;6242269;22;20377;-76
2023/03/11 01:35:17;;;;;;;0.03;0.00;;;12.00;58.10;;;;;;6241247;22;20388;-76
2023/03/11 01:37:45;;;;;;;0.60;0.00;;;11.90;58.30;;;;;;6240553;23;20386;-80
2023/03/11 01:40:31;;;;;;;0.00;0.00;;;11.90;58.40;;;;;;6239492;22;20365;-77
2023/03/11 01:43:00;;;;;;;0.10;0.00;;;11.90;58.60;;;;;;6240463;23;20369;-75
2023/03/11 01:45:32;;;;;;;0.00;0.00;;;11.80;58.80;;;;;;6239181;22;20707;-76
2023/03/11 01:48:00;;;;;;;0.60;0.10;;;11.80;58.80;;;;;;6241996;22;20716;-79
2023/03/11 01:50:33;;;;;;;0.10;0.00;;;11.70;59.50;;;;;;6239719;22;20412;-77
2023/03/11 01:53:00;;;;;;;0.08;0.00;;;11.70;59.90;;;;;;6240475;23;20444;-76
2023/03/11 01:55:28;;;;;;;0.80;0.00;;;11.60;60.20;;;;;;6239003;22;20401;-78
2023/03/11 01:57:55;;;;;;;0.10;0.00;;;11.60;60.00;;;;;;6240725;23;20431;-78
2023/03/11 02:00:22;;;;;;;0.20;0.10;;;11.60;60.40;;;;;;6239442;22;20407;-84
2023/03/11 02:02:56;;;;;;;0.10;0.00;;;11.60;60.10;;;;;;6246480;23;20764;-83
